M I D A S
Marine Information and Data Acquisition System
Tripno 1180 of the Zeeleeuw from 2006-12-19 07:30:20 to 2006-12-19 15:50:48
Back to CruiseResearch ActivitiesStationsMapUnderway DataData graphs

EquipmentUnitsComment
TimeDGPSUTC
LatitudeDGPSDM.mWGS84
LongitudeDGPSDM.mWGS84
TemperatureSBE03/SBE38deg celciusITS90
ConductivitySBE21S/mITS90
SalinitySBE21 Practical Salinity Units
ChlorophylAChelsea fluorimeterg/lCalibrated in Aceton
Missing or incorrect values are displayed as -999
Sea surface data collected by the RV Zeeleeuw from 2006-12-19 07:30:50 to 2006-12-19 16:02:29
Time Latitude Longitude Temperature Conductivity Salinity ChlorophylA
2006-12-19 07:31:58 51°13.61 2°56.041 9.6599 2.717627 22.627741 -2.871232
2006-12-19 07:32:58 51°13.628 2°55.964 9.2135 2.95455 25.586417 -2.871232
2006-12-19 07:33:56 51°13.636 2°55.93 9.0335 2.959623 25.924253 -2.871232
2006-12-19 07:34:58 51°13.67 2°55.85 8.9084 3.02045 26.599539 -2.871232
2006-12-19 07:35:58 51°13.718 2°55.754 8.9239 3.079008 27.237851 -2.871232
2006-12-19 07:36:56 51°13.735 2°55.727 8.865 3.089459 27.354476 -2.871232
2006-12-19 07:37:58 51°13.731 2°55.705 8.8467 2.989624 26.439145 -2.871232
2006-12-19 07:38:58 51°13.732 2°55.701 8.8413 3.086252 27.361557 -2.871232
2006-12-19 07:39:58 51°13.743 2°55.693 8.8634 3.070836 27.225097 -2.871232
2006-12-19 07:40:56 51°13.792 2°55.659 8.8304 3.066387 27.193822 -2.871232
2006-12-19 07:41:55 51°13.869 2°55.607 8.7346 2.990452 26.490857 -2.871232
2006-12-19 07:42:55 51°13.953 2°55.545 8.8275 2.951559 26.143749 -2.871232
2006-12-19 07:43:54 51°14.035 2°55.487 8.8339 3.092357 27.457802 -2.871232
2006-12-19 07:44:56 51°14.121 2°55.422 8.7665 3.045592 27.020416 -2.871232
2006-12-19 07:45:58 51°14.202 2°55.345 8.713 3.014039 26.755698 -2.871232
2006-12-19 07:46:56 51°14.265 2°55.243 8.6565 2.959421 26.27026 -2.871232
2006-12-19 07:47:56 51°14.334 2°55.113 8.64 2.938424 26.097524 -2.871232
2006-12-19 07:48:55 51°14.405 2°54.939 8.5862 3.042387 27.144306 -2.871232
2006-12-19 07:49:54 51°14.469 2°54.712 8.7713 3.211882 28.821234 -2.871232
2006-12-19 07:50:54 51°14.496 2°54.433 8.9253 3.377815 30.304237 -2.871232
2006-12-19 07:51:54 51°14.44 2°54.153 8.9539 3.441284 30.814856 -2.871232
2006-12-19 07:52:54 51°14.328 2°53.884 9.0291 3.462202 31.002996 -2.871232
2006-12-19 07:53:54 51°14.208 2°53.604 9.066 3.492957 31.251624 -2.871232
2006-12-19 07:54:54 51°14.089 2°53.321 9.1219 3.502381 31.316222 -2.871232
2006-12-19 07:55:54 51°13.97 2°53.035 9.1402 3.510562 31.351841 -2.871232
2006-12-19 07:56:54 51°13.85 2°52.743 9.1724 3.51284 31.355387 -2.871232
2006-12-19 07:57:54 51°13.727 2°52.442 9.2114 3.516258 31.356981 -2.871232
2006-12-19 07:58:54 51°13.604 2°52.141 9.2411 3.520504 31.363471 -2.871232
2006-12-19 07:59:54 51°13.482 2°51.84 9.2596 3.522471 31.362289 -2.871232
2006-12-19 08:00:54 51°13.358 2°51.531 9.2687 3.522471 31.344141 -2.871232
2006-12-19 08:01:54 51°13.23 2°51.207 9.2729 3.435689 30.489929 -2.871232
2006-12-19 08:02:54 51°13.101 2°50.881 9.2858 3.465615 30.768518 -2.871232
2006-12-19 08:03:54 51°12.973 2°50.554 9.283 3.377292 29.892271 -2.871232
2006-12-19 08:04:54 51°12.846 2°50.227 9.2826 3.464787 30.751467 -2.871232
2006-12-19 08:05:54 51°12.723 2°49.895 9.2934 3.434964 30.458769 -2.871232
2006-12-19 08:06:54 51°12.603 2°49.564 9.2937 3.442109 30.525041 -2.871232
2006-12-19 08:07:54 51°12.483 2°49.236 9.3007 3.446251 30.568199 -2.871232
2006-12-19 08:08:54 51°12.362 2°48.91 9.3163 3.45702 30.664522 -2.871232
2006-12-19 08:09:54 51°12.241 2°48.584 9.3213 3.470482 30.784915 -2.871232
2006-12-19 08:10:54 51°12.119 2°48.256 9.3152 3.476488 30.848093 -2.871232
2006-12-19 08:11:54 51°12 2°47.925 9.312 3.449254 30.580877 -2.871232
2006-12-19 08:12:54 51°11.88 2°47.593 9.316 3.470171 30.789133 -2.871232
2006-12-19 08:13:53 51°11.762 2°47.268 9.3234 3.46168 30.702322 -2.871232
2006-12-19 08:14:54 51°11.656 2°46.923 9.3075 3.481666 30.89584 -2.871232
2006-12-19 08:15:54 51°11.59 2°46.558 9.2875 3.452464 30.625318 -2.871232
2006-12-19 08:16:54 51°11.523 2°46.191 9.2835 3.452878 30.641468 -2.871232
2006-12-19 08:17:54 51°11.457 2°45.826 9.2941 3.468308 30.794234 -2.871232
2006-12-19 08:18:54 51°11.391 2°45.463 9.3221 3.426266 30.366857 -2.871232
2006-12-19 08:19:54 51°11.324 2°45.099 9.3494 3.460851 30.685307 -2.871232
2006-12-19 08:20:54 51°11.268 2°44.73 9.3751 3.477213 30.819623 -2.871232
2006-12-19 08:21:55 51°11.222 2°44.351 9.439 3.49461 30.961577 -2.871232
2006-12-19 08:22:54 51°11.188 2°43.982 9.489 3.494402 30.904478 -2.871232
2006-12-19 08:23:55 51°11.165 2°43.597 9.5251 3.496577 30.884634 -2.871232
2006-12-19 08:24:54 51°11.148 2°43.226 9.5833 3.542457 31.298913 -2.871232
2006-12-19 08:25:54 51°11.134 2°42.85 9.632 3.525677 31.084067 -2.871232
2006-12-19 08:26:55 51°11.12 2°42.508 9.6164 3.549395 31.278068 -2.871232
2006-12-19 08:27:54 51°11.109 2°42.287 9.6461 3.486116 30.688353 -2.871232
2006-12-19 08:28:54 51°11.1 2°42.114 9.6847 3.559752 31.356619 -2.871232
2006-12-19 08:29:53 51°11.092 2°42.053 9.693 3.531269 31.056325 -2.871232
2006-12-19 08:30:58 51°11.092 2°42.053 9.6941 3.58026 31.528679 -2.871232
2006-12-19 08:31:57 51°11.092 2°42.047 9.6976 3.558923 31.319205 -2.871232
2006-12-19 08:32:55 51°11.088 2°42.041 9.6994 3.570835 31.432397 -2.871232
2006-12-19 08:33:54 51°11.084 2°42.031 9.6989 3.582125 31.542006 -2.871232
2006-12-19 08:34:55 51°11.08 2°42.02 9.7054 3.577464 31.494776 -2.871232
2006-12-19 08:35:54 51°11.077 2°42.007 9.7039 3.565759 31.377885 -2.871232
2006-12-19 08:36:54 51°11.073 2°41.994 9.704 3.581918 31.535067 -2.871232
2006-12-19 08:37:55 51°11.069 2°41.98 9.7036 3.568349 31.402383 -2.871232
2006-12-19 08:38:54 51°11.064 2°41.968 9.7016 3.55913 31.313912 -2.871232
2006-12-19 08:39:54 51°11.058 2°41.956 9.7071 3.49906 30.726867 -2.871232
2006-12-19 08:40:53 51°11.052 2°41.944 9.7083 3.573424 31.447921 -2.871232
2006-12-19 08:41:54 51°11.046 2°41.933 9.7036 3.579224 31.504636 -2.871232
2006-12-19 08:42:54 51°11.038 2°41.918 9.6979 3.569074 31.410286 -2.871232
2006-12-19 08:43:55 51°10.997 2°41.776 9.7052 3.560477 31.325444 -2.871232
2006-12-19 08:44:55 51°10.921 2°41.488 9.7304 3.582746 31.539078 -2.871232
2006-12-19 08:45:54 51°10.841 2°41.157 9.7467 3.561823 31.306906 -2.871232
2006-12-19 08:46:55 51°10.758 2°40.81 9.631 3.537483 31.108127 -2.871232
2006-12-19 08:47:54 51°10.678 2°40.473 9.6372 3.540798 31.196386 -2.871232
2006-12-19 08:48:54 51°10.597 2°40.133 9.8495 3.521844 30.96592 -2.871232
2006-12-19 08:49:54 51°10.52 2°39.792 9.9246 3.600664 31.558765 -2.871232
2006-12-19 08:50:54 51°10.428 2°39.461 9.9424 3.60201 31.528725 -2.871232
2006-12-19 08:51:54 51°10.336 2°39.127 9.9515 3.605739 31.54954 -2.871232
2006-12-19 08:52:55 51°10.241 2°38.79 9.9591 3.607811 31.560736 -2.871232
2006-12-19 08:53:55 51°10.149 2°38.459 9.9654 3.611747 31.589237 -2.871232
2006-12-19 08:54:54 51°10.059 2°38.133 9.9135 3.608639 31.557407 -2.871232
2006-12-19 08:55:55 51°9.967 2°37.794 9.883 3.590823 31.441834 -2.871232
2006-12-19 08:56:54 51°9.875 2°37.474 9.911 3.589891 31.451433 -2.871232
2006-12-19 08:57:55 51°9.782 2°37.143 9.9026 3.552188 31.063882 -2.871232
2006-12-19 08:58:55 51°9.71 2°36.807 9.8027 3.567207 31.242028 -2.871232
2006-12-19 08:59:55 51°9.734 2°36.456 9.8426 3.527643 30.91896 -2.871232
2006-12-19 09:00:55 51°9.839 2°36.141 9.9072 3.551671 31.083715 -2.871232
2006-12-19 09:01:55 51°9.989 2°35.874 9.9032 3.521117 30.761545 -2.871232
2006-12-19 09:02:55 51°10.172 2°35.678 9.9188 3.581812 31.359845 -2.871232
2006-12-19 09:03:55 51°10.39 2°35.72 9.9287 3.502475 30.565062 -2.871232
2006-12-19 09:04:55 51°10.598 2°35.873 9.9241 3.603357 31.541823 -2.871232
2006-12-19 09:05:55 51°10.802 2°36.046 9.9226 3.615684 31.668293 -2.871232
2006-12-19 09:06:55 51°11.002 2°36.229 9.9174 3.545248 30.98371 -2.871232
2006-12-19 09:07:55 51°11.199 2°36.424 9.9165 3.612991 31.639629 -2.871232
2006-12-19 09:08:55 51°11.391 2°36.629 9.9012 3.613509 31.653651 -2.871232
2006-12-19 09:09:55 51°11.584 2°36.832 9.8899 3.587094 31.409612 -2.871232
2006-12-19 09:10:55 51°11.778 2°37.035 9.8616 3.533027 30.899403 -2.871232
2006-12-19 09:11:55 51°11.972 2°37.236 9.8486 3.583884 31.41324 -2.871232
2006-12-19 09:12:55 51°12.167 2°37.434 9.8422 3.600665 31.586502 -2.871232
2006-12-19 09:13:55 51°12.361 2°37.634 9.8368 3.575494 31.350186 -2.871232
2006-12-19 09:14:55 51°12.555 2°37.831 9.843 3.578291 31.374183 -2.871232
2006-12-19 09:15:55 51°12.749 2°38.031 9.8507 3.560578 31.197697 -2.871232
2006-12-19 09:16:55 51°12.944 2°38.231 9.863 3.595692 31.538854 -2.871232
2006-12-19 09:17:55 51°13.139 2°38.433 9.8835 3.607294 31.631511 -2.871232
2006-12-19 09:18:55 51°13.336 2°38.628 9.9259 3.607708 31.616763 -2.871232
2006-12-19 09:19:55 51°13.542 2°38.797 9.9923 3.52412 30.7629 -2.871232
2006-12-19 09:20:55 51°13.759 2°38.917 10.0516 3.645207 31.876102 -2.871232
2006-12-19 09:21:55 51°13.983 2°38.954 10.1464 3.662093 31.980258 -2.871232
2006-12-19 09:22:55 51°14.19 2°38.848 10.1712 3.669655 31.982251 -2.871232
2006-12-19 09:23:54 51°14.388 2°38.7 10.1879 3.674835 32.015234 -2.871232
2006-12-19 09:24:55 51°14.592 2°38.542 10.2388 3.696384 32.193613 -2.871232
2006-12-19 09:25:55 51°14.79 2°38.377 10.2785 3.608222 31.299478 -2.871232
2006-12-19 09:26:55 51°14.987 2°38.21 10.3067 3.689027 32.046931 -2.871232
2006-12-19 09:27:55 51°15.185 2°38.05 10.3372 3.691306 32.042788 -2.871232
2006-12-19 09:28:55 51°15.377 2°37.88 10.3842 3.691099 32.008957 -2.871232
2006-12-19 09:29:55 51°15.57 2°37.71 10.4029 3.70322 32.089126 -2.871232
2006-12-19 09:30:55 51°15.762 2°37.542 10.379 3.723217 32.276211 -2.871232
2006-12-19 09:31:55 51°15.953 2°37.371 10.3949 3.700941 32.079398 -2.871232
2006-12-19 09:32:55 51°16.145 2°37.192 10.4109 3.710369 32.138422 -2.871232
2006-12-19 09:33:55 51°16.321 2°37.032 10.4161 3.71327 32.169651 -2.871232
2006-12-19 09:34:55 51°16.44 2°36.925 10.4362 3.719176 32.214292 -2.871232
2006-12-19 09:35:55 51°16.542 2°36.838 10.5776 3.729433 32.266415 -2.871232
2006-12-19 09:36:55 51°16.601 2°36.801 10.6624 3.72995 32.151455 -2.871232
2006-12-19 09:37:55 51°16.604 2°36.809 10.6997 3.745699 32.237357 -2.871232
2006-12-19 09:38:55 51°16.607 2°36.817 10.7074 3.734301 32.105542 -2.871232
2006-12-19 09:39:55 51°16.612 2°36.827 10.7149 3.721763 31.97758 -2.871232
2006-12-19 09:40:55 51°16.617 2°36.839 10.7187 3.738963 32.136378 -2.871232
2006-12-19 09:41:55 51°16.624 2°36.853 10.72 3.710158 31.857855 -2.871232
2006-12-19 09:42:55 51°16.631 2°36.869 10.7287 3.749014 32.226028 -2.871232
2006-12-19 09:43:55 51°16.639 2°36.887 10.7317 3.764247 32.365263 -2.871232
2006-12-19 09:44:55 51°16.647 2°36.906 10.731 3.761656 32.337214 -2.871232
2006-12-19 09:45:55 51°16.654 2°36.926 10.7293 3.751812 32.243857 -2.871232
2006-12-19 09:46:55 51°16.662 2°36.947 10.7327 3.744869 32.177466 -2.871232
2006-12-19 09:47:55 51°16.712 2°37.013 10.7311 3.74891 32.215297 -2.871232
2006-12-19 09:48:55 51°16.887 2°37.135 10.756 3.731191 32.032206 -2.871232
2006-12-19 09:49:55 51°17.097 2°37.302 10.7382 3.738134 32.091255 -2.871232
2006-12-19 09:50:55 51°17.3 2°37.502 10.728 3.709536 31.827063 -2.871232
2006-12-19 09:51:55 51°17.503 2°37.701 10.7407 3.730777 32.036311 -2.871232
2006-12-19 09:52:55 51°17.706 2°37.904 10.743 3.75834 32.294102 -2.871232
2006-12-19 09:53:55 51°17.91 2°38.101 10.7083 3.7257 31.990227 -2.871232
2006-12-19 09:54:55 51°18.111 2°38.302 10.7061 3.744455 32.179987 -2.871232
2006-12-19 09:55:55 51°18.31 2°38.506 10.6757 3.741036 32.162682 -2.871232
2006-12-19 09:56:55 51°18.511 2°38.709 10.6725 3.721349 32.00346 -2.871232
2006-12-19 09:57:55 51°18.712 2°38.911 10.6414 3.749533 32.275709 -2.871232
2006-12-19 09:58:55 51°18.914 2°39.115 10.6394 3.756994 32.359438 -2.871232
2006-12-19 09:59:55 51°19.116 2°39.318 10.6347 3.73741 32.175837 -2.871232
2006-12-19 10:00:55 51°19.319 2°39.521 10.7415 3.708501 31.888617 -2.871232
2006-12-19 10:01:55 51°19.523 2°39.724 10.7389 3.704355 31.780029 -2.871232
2006-12-19 10:02:55 51°19.727 2°39.928 10.7703 3.749117 32.185667 -2.871232
2006-12-19 10:03:55 51°19.926 2°40.146 10.7935 3.749946 32.177395 -2.871232
2006-12-19 10:04:55 51°20.121 2°40.377 10.8166 3.752951 32.181815 -2.871232
2006-12-19 10:05:55 51°20.316 2°40.61 10.84 3.683633 31.495995 -2.871232
2006-12-19 10:06:55 51°20.51 2°40.844 10.8354 3.743521 32.058023 -2.871232
2006-12-19 10:07:55 51°20.705 2°41.078 10.8245 3.728807 31.92828 -2.871232
2006-12-19 10:08:55 51°20.899 2°41.313 10.8221 3.72373 31.883122 -2.871232
2006-12-19 10:09:55 51°21.094 2°41.55 10.813 3.74207 32.061902 -2.871232
2006-12-19 10:10:55 51°21.29 2°41.785 10.7976 3.709017 31.755781 -2.871232
2006-12-19 10:11:55 51°21.483 2°42.028 10.7882 3.853683 33.147626 -2.871232
2006-12-19 10:12:55 51°21.671 2°42.282 10.7757 3.853372 33.158817 -2.871232
2006-12-19 10:13:55 51°21.857 2°42.538 10.7551 3.852129 33.160237 -2.871232
2006-12-19 10:14:55 51°22.038 2°42.804 10.7307 3.849745 33.154892 -2.871232
2006-12-19 10:15:55 51°22.22 2°43.069 10.7194 3.847258 33.149385 -2.871232
2006-12-19 10:16:55 51°22.403 2°43.334 10.7013 3.845289 33.144674 -2.871232
2006-12-19 10:17:55 51°22.585 2°43.598 10.69 3.84332 33.140797 -2.871232
2006-12-19 10:18:55 51°22.768 2°43.863 10.6826 3.842076 33.137204 -2.871232
2006-12-19 10:19:55 51°22.95 2°44.127 10.6778 3.841247 33.135086 -2.871232
2006-12-19 10:20:55 51°23.133 2°44.391 10.6767 3.840729 33.134285 -2.871232
2006-12-19 10:21:55 51°23.316 2°44.656 10.6736 3.840625 33.135797 -2.871232
2006-12-19 10:22:55 51°23.499 2°44.922 10.6738 3.840729 33.136793 -2.871232
2006-12-19 10:23:55 51°23.682 2°45.188 10.6741 3.840522 33.1348 -2.871232
2006-12-19 10:24:55 51°23.867 2°45.453 10.6864 3.840211 33.13014 -2.871232
2006-12-19 10:25:55 51°24.053 2°45.719 10.6988 3.841558 33.131389 -2.871232
2006-12-19 10:26:55 51°24.239 2°45.984 10.7247 3.844045 33.141918 -2.871232
2006-12-19 10:27:55 51°24.424 2°46.251 10.7344 3.847673 33.1542 -2.871232
2006-12-19 10:28:55 51°24.61 2°46.516 10.7536 3.850574 33.169529 -2.871232
2006-12-19 10:29:55 51°24.795 2°46.783 10.7765 3.854098 33.184136 -2.871232
2006-12-19 10:30:55 51°24.98 2°47.049 10.7993 3.857622 33.201236 -2.871232
2006-12-19 10:31:55 51°25.165 2°47.313 10.8204 3.862389 33.220227 -2.871232
2006-12-19 10:32:55 51°25.351 2°47.575 10.7962 3.864358 33.229916 -2.871232
2006-12-19 10:33:55 51°25.536 2°47.835 10.7648 3.859591 33.209264 -2.871232
2006-12-19 10:34:55 51°25.697 2°48.067 10.7467 3.853684 33.180158 -2.871232
2006-12-19 10:35:55 51°25.842 2°48.278 10.7386 3.850885 33.164998 -2.871232
2006-12-19 10:36:55 51°25.953 2°48.444 10.7341 3.849123 33.156438 -2.871232
2006-12-19 10:37:55 51°26.01 2°48.537 10.7335 3.848294 33.153489 -2.871232
2006-12-19 10:38:57 51°26.013 2°48.548 10.7364 3.848191 33.149154 -2.871232
2006-12-19 10:39:55 51°26.019 2°48.563 10.7305 3.848191 33.149989 -2.871232
2006-12-19 10:40:55 51°26.028 2°48.582 10.7271 3.84788 33.151179 -2.871232
2006-12-19 10:41:55 51°26.038 2°48.605 10.7263 3.847673 33.151694 -2.871232
2006-12-19 10:42:55 51°26.052 2°48.631 10.7266 3.847673 33.151694 -2.871232
2006-12-19 10:43:55 51°26.065 2°48.66 10.7258 3.847776 33.152689 -2.871232
2006-12-19 10:44:55 51°26.081 2°48.693 10.7274 3.847673 33.15253 -2.871232
2006-12-19 10:45:55 51°26.097 2°48.728 10.7242 3.848191 33.151659 -2.871232
2006-12-19 10:46:55 51°26.114 2°48.766 10.7271 3.848398 33.151979 -2.871232
2006-12-19 10:47:55 51°26.14 2°48.833 10.725 3.847776 33.152689 -2.871232
2006-12-19 10:48:55 51°26.199 2°49.021 10.7268 3.847569 33.151535 -2.871232
2006-12-19 10:49:55 51°26.27 2°49.345 10.7273 3.84788 33.150344 -2.871232
2006-12-19 10:50:55 51°26.347 2°49.73 10.7235 3.847362 33.146205 -2.871232
2006-12-19 10:51:55 51°26.415 2°50.126 10.7221 3.846843 33.143735 -2.871232
2006-12-19 10:52:55 51°26.477 2°50.525 10.7155 3.846014 33.139949 -2.871232
2006-12-19 10:53:55 51°26.538 2°50.925 10.7076 3.844874 33.136517 -2.871232
2006-12-19 10:54:54 51°26.598 2°51.315 10.6929 3.843423 33.129263 -2.871232
2006-12-19 10:55:55 51°26.66 2°51.722 10.6727 3.841143 33.123228 -2.871232
2006-12-19 10:56:55 51°26.72 2°52.122 10.6602 3.838967 33.11568 -2.871232
2006-12-19 10:57:55 51°26.775 2°52.524 10.6432 3.836998 33.111791 -2.871232
2006-12-19 10:58:55 51°26.831 2°52.928 10.6367 3.834822 33.105071 -2.871232
2006-12-19 10:59:55 51°26.887 2°53.329 10.6454 3.834304 33.098416 -2.871232
2006-12-19 11:00:55 51°26.943 2°53.73 10.6481 3.834718 33.097389 -2.871232
2006-12-19 11:01:55 51°27 2°54.132 10.6478 3.834407 33.09607 -2.871232
2006-12-19 11:02:55 51°27.059 2°54.537 10.6242 3.833889 33.093594 -2.871232
2006-12-19 11:03:55 51°27.116 2°54.942 10.6223 3.830987 33.083231 -2.871232
2006-12-19 11:04:55 51°27.171 2°55.347 10.6329 3.831298 33.083715 -2.871232
2006-12-19 11:05:55 51°27.225 2°55.749 10.5499 3.83078 33.087088 -2.871232
2006-12-19 11:06:55 51°27.279 2°56.149 9.9482 3.817412 33.054533 -2.871232
2006-12-19 11:07:55 51°27.333 2°56.546 9.8741 3.737522 32.837914 -2.871232
2006-12-19 11:08:54 51°27.386 2°56.938 9.8895 3.732238 32.813325 -2.871232
2006-12-19 11:09:55 51°27.44 2°57.343 9.8812 3.734 32.818701 -2.871232
2006-12-19 11:10:55 51°27.492 2°57.741 9.8649 3.730684 32.808281 -2.871232
2006-12-19 11:11:55 51°27.545 2°58.14 9.8377 3.730166 32.809141 -2.871232
2006-12-19 11:12:55 51°27.595 2°58.539 9.7945 3.723743 32.791151 -2.871232
2006-12-19 11:13:55 51°27.645 2°58.939 9.7924 3.719495 32.774106 -2.871232
2006-12-19 11:14:55 51°27.695 2°59.338 9.7872 3.719184 32.774451 -2.871232
2006-12-19 11:15:55 51°27.746 2°59.738 9.7928 3.718977 32.774116 -2.871232
2006-12-19 11:16:55 51°27.797 3°0.137 9.8027 3.719909 32.776473 -2.871232
2006-12-19 11:17:55 51°27.853 3°0.537 9.7787 3.720738 32.782056 -2.871232
2006-12-19 11:18:54 51°27.914 3°0.929 9.4151 3.71245 32.756752 -2.871232
2006-12-19 11:19:55 51°27.978 3°1.334 9.3605 3.651016 32.461517 -2.871232
2006-12-19 11:20:55 51°28.039 3°1.736 9.3851 3.635684 32.365046 -2.871232
2006-12-19 11:21:55 51°28.092 3°2.14 9.4354 3.646457 32.413903 -2.871232
2006-12-19 11:22:55 51°28.14 3°2.545 9.4542 3.651326 32.43826 -2.871232
2006-12-19 11:23:55 51°28.183 3°2.882 9.3181 3.652776 32.443254 -2.871232
2006-12-19 11:24:55 51°28.216 3°3.102 9.2892 3.619317 32.249613 -2.871232
2006-12-19 11:25:55 51°28.243 3°3.288 9.3634 3.618592 32.233117 -2.871232
2006-12-19 11:26:55 51°28.268 3°3.453 9.4187 3.631229 32.297239 -2.871232
2006-12-19 11:27:55 51°28.285 3°3.514 9.4574 3.640138 32.342977 -2.871232
2006-12-19 11:28:55 51°28.302 3°3.552 9.5769 3.658474 32.449472 -2.871232
2006-12-19 11:29:55 51°28.319 3°3.592 9.6236 3.678364 32.561604 -2.871232
2006-12-19 11:30:55 51°28.338 3°3.632 9.6034 3.680954 32.573538 -2.871232
2006-12-19 11:31:55 51°28.356 3°3.674 9.5071 3.67422 32.533508 -2.871232
2006-12-19 11:32:55 51°28.373 3°3.716 9.4764 3.654433 32.419778 -2.871232
2006-12-19 11:33:55 51°28.391 3°3.759 9.471 3.649668 32.390533 -2.871232
2006-12-19 11:34:55 51°28.407 3°3.801 9.4736 3.648943 32.377452 -2.871232
2006-12-19 11:35:55 51°28.422 3°3.844 9.4749 3.648839 32.380661 -2.871232
2006-12-19 11:36:55 51°28.437 3°3.885 9.474 3.64915 32.384574 -2.871232
2006-12-19 11:37:55 51°28.436 3°3.945 9.4723 3.649668 32.38884 -2.871232
2006-12-19 11:38:55 51°28.389 3°3.949 9.4897 3.65174 32.404208 -2.871232
2006-12-19 11:39:55 51°28.353 3°3.847 9.491 3.654951 32.426582 -2.871232
2006-12-19 11:40:54 51°28.318 3°3.719 9.4107 3.649772 32.398329 -2.871232
2006-12-19 11:41:55 51°28.292 3°3.601 9.3849 3.638273 32.338944 -2.871232
2006-12-19 11:42:55 51°28.286 3°3.524 9.3978 3.636409 32.339992 -2.871232
2006-12-19 11:43:55 51°28.278 3°3.492 9.4284 3.643039 32.386047 -2.871232
2006-12-19 11:44:55 51°28.272 3°3.491 9.4427 3.649151 32.424402 -2.871232
2006-12-19 11:45:55 51°28.266 3°3.501 9.4606 3.653087 32.444627 -2.871232
2006-12-19 11:46:55 51°28.256 3°3.516 9.4869 3.655677 32.457477 -2.871232
2006-12-19 11:47:55 51°28.245 3°3.53 9.4921 3.663136 32.498012 -2.871232
2006-12-19 11:48:55 51°28.236 3°3.535 9.4886 3.660132 32.481091 -2.871232
2006-12-19 11:49:55 51°28.229 3°3.537 9.5154 3.662203 32.493054 -2.871232
2006-12-19 11:50:55 51°28.222 3°3.538 9.5151 3.665415 32.508617 -2.871232
2006-12-19 11:51:55 51°28.212 3°3.541 9.5241 3.666554 32.516464 -2.871232
2006-12-19 11:52:55 51°28.201 3°3.546 9.5153 3.668005 32.524829 -2.871232
2006-12-19 11:53:55 51°28.193 3°3.561 9.5318 3.666969 32.519703 -2.871232
2006-12-19 11:54:55 51°28.19 3°3.582 9.5271 3.668108 32.525851 -2.871232
2006-12-19 11:55:55 51°28.189 3°3.608 9.5199 3.669455 32.534041 -2.871232
2006-12-19 11:56:55 51°28.191 3°3.635 9.5312 3.668626 32.529262 -2.871232
2006-12-19 11:57:55 51°28.19 3°3.643 9.5411 3.671113 32.541898 -2.871232
2006-12-19 11:58:55 51°28.211 3°3.598 9.5331 3.67391 32.557591 -2.871232
2006-12-19 11:59:55 51°28.258 3°3.529 9.5269 3.670802 32.543078 -2.871232
2006-12-19 12:00:55 51°28.278 3°3.501 9.5135 3.668626 32.528413 -2.871232
2006-12-19 12:01:55 51°28.287 3°3.514 9.5293 3.668937 32.532328 -2.871232
2006-12-19 12:02:55 51°28.296 3°3.535 9.5327 3.668834 32.529608 -2.871232
2006-12-19 12:03:55 51°28.304 3°3.559 9.5102 3.67018 32.538646 -2.871232
2006-12-19 12:04:55 51°28.303 3°3.573 9.5197 3.666762 32.519357 -2.871232
2006-12-19 12:05:55 51°28.299 3°3.585 9.5287 3.668937 32.532328 -2.871232
2006-12-19 12:06:55 51°28.299 3°3.602 9.521 3.668937 32.532328 -2.871232
2006-12-19 12:07:55 51°28.283 3°3.616 9.5351 3.668108 32.527549 -2.871232
2006-12-19 12:08:55 51°28.215 3°3.739 9.5387 3.673392 32.558427 -2.871232
2006-12-19 12:09:55 51°28.066 3°3.994 9.5489 3.673806 32.557418 -2.871232
2006-12-19 12:10:55 51°27.928 3°4.289 9.5533 3.672874 32.546529 -2.871232
2006-12-19 12:11:55 51°27.8 3°4.596 9.5182 3.670387 32.524566 -2.871232
2006-12-19 12:12:55 51°27.67 3°4.899 9.5112 3.662307 32.474569 -2.871232
2006-12-19 12:13:55 51°27.541 3°5.202 9.5014 3.659302 32.452564 -2.871232
2006-12-19 12:14:55 51°27.409 3°5.502 9.4545 3.655055 32.418289 -2.871232
2006-12-19 12:15:55 51°27.294 3°5.822 9.4027 3.64107 32.3378 -2.871232
2006-12-19 12:16:55 51°27.189 3°6.152 9.3921 3.632783 32.288912 -2.871232
2006-12-19 12:17:55 51°27.082 3°6.478 9.3936 3.631229 32.278629 -2.871232
2006-12-19 12:18:55 51°26.973 3°6.801 9.3716 3.63154 32.283391 -2.871232
2006-12-19 12:19:55 51°26.869 3°7.128 9.2888 3.626775 32.275186 -2.871232
2006-12-19 12:20:55 51°26.768 3°7.458 9.1855 3.614863 32.246998 -2.871232
2006-12-19 12:21:55 51°26.665 3°7.786 9.1532 3.597254 32.151075 -2.871232
2006-12-19 12:22:55 51°26.58 3°8.052 9.1551 3.591868 32.108579 -2.871232
2006-12-19 12:23:55 51°26.528 3°8.221 9.1595 3.590521 32.095201 -2.871232
2006-12-19 12:24:55 51°26.464 3°8.25 9.137 3.590832 32.105063 -2.871232
2006-12-19 12:25:55 51°26.472 3°8.264 9.1302 3.59104 32.118985 -2.871232
2006-12-19 12:26:55 51°26.485 3°8.281 9.129 3.590833 32.124557 -2.871232
2006-12-19 12:27:55 51°26.496 3°8.293 9.1286 3.590729 32.123527 -2.871232
2006-12-19 12:28:55 51°26.506 3°8.294 9.1363 3.591661 32.130252 -2.871232
2006-12-19 12:29:55 51°26.513 3°8.291 9.1267 3.592593 32.136976 -2.871232
2006-12-19 12:30:55 51°26.519 3°8.295 9.1365 3.592179 32.135401 -2.871232
2006-12-19 12:31:55 51°26.526 3°8.303 9.132 3.592801 32.141581 -2.871232
2006-12-19 12:32:55 51°26.533 3°8.316 9.1299 3.592697 32.142248 -2.871232
2006-12-19 12:33:55 51°26.542 3°8.333 9.131 3.593526 32.151336 -2.871232
2006-12-19 12:34:55 51°26.552 3°8.35 9.1316 3.594458 32.159758 -2.871232
2006-12-19 12:35:55 51°26.563 3°8.369 9.1315 3.594665 32.161818 -2.871232
2006-12-19 12:36:55 51°26.575 3°8.388 9.127 3.59508 32.166788 -2.871232
2006-12-19 12:37:55 51°26.586 3°8.41 9.125 3.594562 32.165034 -2.871232
2006-12-19 12:38:55 51°26.594 3°8.426 9.1251 3.594458 32.164853 -2.871232
2006-12-19 12:39:55 51°26.55 3°8.409 9.1252 3.594458 32.164853 -2.871232
2006-12-19 12:40:55 51°26.481 3°8.359 9.1406 3.598187 32.199393 -2.871232
2006-12-19 12:41:55 51°26.458 3°8.333 9.1599 3.604506 32.246076 -2.871232
2006-12-19 12:42:55 51°26.463 3°8.325 9.1736 3.610306 32.285025 -2.871232
2006-12-19 12:43:55 51°26.471 3°8.322 9.1741 3.611446 32.290392 -2.871232
2006-12-19 12:44:55 51°26.482 3°8.323 9.1813 3.611135 32.287303 -2.871232
2006-12-19 12:45:55 51°26.493 3°8.327 9.1931 3.612585 32.295757 -2.871232
2006-12-19 12:46:55 51°26.505 3°8.332 9.1909 3.615486 32.310955 -2.871232
2006-12-19 12:47:55 51°26.519 3°8.339 9.1869 3.614864 32.309037 -2.871232
2006-12-19 12:48:55 51°26.533 3°8.347 9.194 3.615278 32.312303 -2.871232
2006-12-19 12:49:55 51°26.547 3°8.358 9.1974 3.616003 32.314398 -2.871232
2006-12-19 12:50:55 51°26.561 3°8.372 9.1943 3.616314 32.314931 -2.871232
2006-12-19 12:51:55 51°26.576 3°8.387 9.1936 3.616003 32.314398 -2.871232
2006-12-19 12:52:55 51°26.59 3°8.404 9.1955 3.616211 32.314753 -2.871232
2006-12-19 12:53:55 51°26.605 3°8.4 9.2036 3.616314 32.314931 -2.871232
2006-12-19 12:54:55 51°26.698 3°8.337 9.2287 3.617246 32.318232 -2.871232
2006-12-19 12:55:55 51°26.797 3°8.528 9.1484 3.612689 32.285721 -2.871232
2006-12-19 12:56:55 51°26.72 3°8.808 9.136 3.605127 32.242047 -2.871232
2006-12-19 12:57:55 51°26.607 3°9.125 9.1313 3.593111 32.142973 -2.871232
2006-12-19 12:58:54 51°26.474 3°9.414 9.1257 3.5899 32.111897 -2.871232
2006-12-19 12:59:55 51°26.329 3°9.705 9.1097 3.58555 32.078812 -2.871232
2006-12-19 13:00:55 51°26.186 3°9.988 9.0967 3.576642 32.006317 -2.871232
2006-12-19 13:01:55 51°26.035 3°10.26 9.085 3.576539 32.014591 -2.871232
2006-12-19 13:02:55 51°25.882 3°10.526 9.0678 3.570738 31.97042 -2.871232
2006-12-19 13:03:55 51°25.725 3°10.784 9.0555 3.567735 31.95321 -2.871232
2006-12-19 13:04:55 51°25.566 3°11.043 9.0448 3.567113 31.959705 -2.871232
2006-12-19 13:05:55 51°25.395 3°11.291 9.0347 3.568046 31.979985 -2.871232
2006-12-19 13:06:55 51°25.23 3°11.546 9.0298 3.571464 32.022504 -2.871232
2006-12-19 13:07:54 51°25.114 3°11.865 9.0296 3.576747 32.079387 -2.871232
2006-12-19 13:08:55 51°24.996 3°12.199 9.0282 3.582236 32.133257 -2.871232
2006-12-19 13:09:55 51°24.894 3°12.546 9.0526 3.58638 32.167749 -2.871232
2006-12-19 13:10:55 51°24.778 3°12.878 9.1037 3.598395 32.254254 -2.871232
2006-12-19 13:11:54 51°24.593 3°13.104 9.335 3.612171 32.293342 -2.871232
2006-12-19 13:12:55 51°24.376 3°13.231 9.2344 3.597563 32.014889 -2.871232
2006-12-19 13:13:55 51°24.153 3°13.24 9.1456 3.554371 31.69624 -2.871232
2006-12-19 13:14:55 51°23.93 3°13.244 9.1554 3.538422 31.584874 -2.871232
2006-12-19 13:15:54 51°23.708 3°13.252 9.1363 3.535004 31.549328 -2.871232
2006-12-19 13:16:55 51°23.478 3°13.266 9.0543 3.511702 31.370594 -2.871232
2006-12-19 13:17:54 51°23.257 3°13.264 8.9563 3.499378 31.278965 -2.871232
2006-12-19 13:18:55 51°23.037 3°13.262 8.8113 3.435383 30.797098 -2.871232
2006-12-19 13:19:55 51°22.887 3°13.282 8.7675 3.407634 30.601813 -2.871232
2006-12-19 13:20:55 51°22.773 3°13.332 8.7397 3.401422 30.568461 -2.871232
2006-12-19 13:21:55 51°22.697 3°13.29 8.7265 3.398005 30.563761 -2.871232
2006-12-19 13:22:54 51°22.646 3°13.231 8.7336 3.397902 30.563544 -2.871232
2006-12-19 13:23:55 51°22.629 3°13.209 8.7408 3.398626 30.565877 -2.871232
2006-12-19 13:24:54 51°22.629 3°13.208 8.7415 3.398419 30.562996 -2.871232
2006-12-19 13:25:55 51°22.631 3°13.212 8.7402 3.398626 30.562613 -2.871232
2006-12-19 13:26:55 51°22.633 3°13.221 8.7383 3.398212 30.560931 -2.871232
2006-12-19 13:27:55 51°22.635 3°13.232 8.7372 3.397902 30.559465 -2.871232
2006-12-19 13:28:55 51°22.637 3°13.245 8.7372 3.397902 30.558649 -2.871232
2006-12-19 13:29:55 51°22.638 3°13.26 8.7386 3.398005 30.560497 -2.871232
2006-12-19 13:30:55 51°22.639 3°13.276 8.7538 3.399144 30.56125 -2.871232
2006-12-19 13:31:55 51°22.639 3°13.291 8.7383 3.399144 30.562065 -2.871232
2006-12-19 13:32:55 51°22.639 3°13.307 8.7383 3.398419 30.563812 -2.871232
2006-12-19 13:33:55 51°22.639 3°13.322 8.7386 3.398523 30.563212 -2.871232
2006-12-19 13:34:54 51°22.638 3°13.336 8.7388 3.398316 30.561963 -2.871232
2006-12-19 13:35:55 51°22.634 3°13.339 8.7412 3.398419 30.562996 -2.871232
2006-12-19 13:36:55 51°22.622 3°13.306 8.7308 3.398005 30.560497 -2.871232
2006-12-19 13:37:55 51°22.611 3°13.249 8.7301 3.397073 30.55773 -2.871232
2006-12-19 13:38:55 51°22.602 3°13.2 8.7303 3.397591 30.562078 -2.871232
2006-12-19 13:39:55 51°22.602 3°13.194 8.7239 3.397695 30.563111 -2.871232
2006-12-19 13:40:55 51°22.603 3°13.193 8.7198 3.394071 30.535121 -2.871232
2006-12-19 13:41:55 51°22.604 3°13.195 8.7192 3.393967 30.534904 -2.871232
2006-12-19 13:42:55 51°22.605 3°13.201 8.7191 3.394278 30.538818 -2.871232
2006-12-19 13:43:55 51°22.605 3°13.209 8.7188 3.394381 30.539851 -2.871232
2006-12-19 13:44:54 51°22.606 3°13.219 8.7197 3.394381 30.539851 -2.871232
2006-12-19 13:45:55 51°22.605 3°13.232 8.7223 3.394796 30.542351 -2.871232
2006-12-19 13:46:55 51°22.605 3°13.245 8.7238 3.395313 30.545068 -2.871232
2006-12-19 13:47:55 51°22.605 3°13.259 8.7257 3.395624 30.546535 -2.871232
2006-12-19 13:48:55 51°22.605 3°13.272 8.726 3.395624 30.546535 -2.871232
2006-12-19 13:49:54 51°22.605 3°13.284 8.7281 3.395934 30.548002 -2.871232
2006-12-19 13:50:55 51°22.605 3°13.297 8.7296 3.396038 30.549035 -2.871232
2006-12-19 13:51:55 51°22.604 3°13.31 8.7265 3.396245 30.549469 -2.871232
2006-12-19 13:52:55 51°22.603 3°13.322 8.7282 3.395727 30.546752 -2.871232
2006-12-19 13:53:54 51°22.602 3°13.335 8.7255 3.395934 30.548002 -2.871232
2006-12-19 13:54:55 51°22.6 3°13.344 8.7254 3.395934 30.548818 -2.871232
2006-12-19 13:55:55 51°22.578 3°13.251 8.7193 3.39552 30.547949 -2.871232
2006-12-19 13:56:55 51°22.543 3°13.01 8.7072 3.392828 30.527619 -2.871232
2006-12-19 13:57:55 51°22.499 3°12.685 8.6964 3.389205 30.499616 -2.871232
2006-12-19 13:58:55 51°22.446 3°12.35 8.6703 3.376056 30.387131 -2.871232
2006-12-19 13:59:55 51°22.352 3°12.038 8.6703 3.36415 30.282124 -2.871232
2006-12-19 14:00:55 51°22.246 3°11.732 8.6825 3.368912 30.324779 -2.871232
2006-12-19 14:01:55 51°22.147 3°11.415 8.6822 3.361976 30.254768 -2.871232
2006-12-19 14:02:55 51°22.039 3°11.092 8.6838 3.359801 30.22985 -2.871232
2006-12-19 14:03:55 51°21.933 3°10.772 8.6515 3.358249 30.227295 -2.871232
2006-12-19 14:04:55 51°21.828 3°10.457 8.6477 3.37792 30.435835 -2.871232
2006-12-19 14:05:55 51°21.722 3°10.141 8.6429 3.379991 30.460596 -2.871232
2006-12-19 14:06:55 51°21.608 3°9.831 8.6342 3.381026 30.475019 -2.871232
2006-12-19 14:07:55 51°21.489 3°9.527 8.6202 3.382062 30.494346 -2.871232
2006-12-19 14:08:55 51°21.366 3°9.229 8.6038 3.380819 30.49581 -2.871232
2006-12-19 14:09:55 51°21.242 3°8.929 8.588 3.379059 30.492914 -2.871232
2006-12-19 14:10:55 51°21.117 3°8.63 8.5609 3.377921 30.499507 -2.871232
2006-12-19 14:11:55 51°20.991 3°8.331 8.5063 3.377093 30.524785 -2.871232
2006-12-19 14:12:55 51°20.866 3°8.033 8.4664 3.38372 30.63727 -2.871232
2006-12-19 14:13:55 51°20.741 3°7.735 8.4448 3.392624 30.754803 -2.871232
2006-12-19 14:14:54 51°20.62 3°7.442 8.4094 3.399251 30.847171 -2.871232
2006-12-19 14:15:55 51°20.494 3°7.138 8.4022 3.400183 30.870692 -2.871232
2006-12-19 14:16:55 51°20.371 3°6.837 8.4291 3.414575 31.013981 -2.871232
2006-12-19 14:17:54 51°20.25 3°6.54 8.4695 3.421616 31.067339 -2.871232
2006-12-19 14:18:55 51°20.124 3°6.234 8.5278 3.436112 31.161339 -2.871232
2006-12-19 14:19:55 51°19.999 3°5.934 8.5911 3.44657 31.216212 -2.871232
2006-12-19 14:20:55 51°19.873 3°5.634 8.6492 3.460859 31.296837 -2.871232
2006-12-19 14:21:55 51°19.748 3°5.333 8.7185 3.472664 31.366588 -2.871232
2006-12-19 14:22:55 51°19.624 3°5.031 8.7799 3.485194 31.434209 -2.871232
2006-12-19 14:23:55 51°19.5 3°4.729 8.8363 3.496067 31.485925 -2.871232
2006-12-19 14:24:55 51°19.373 3°4.43 8.9044 3.508701 31.545016 -2.871232
2006-12-19 14:25:55 51°19.248 3°4.128 8.9474 3.516882 31.586377 -2.871232
2006-12-19 14:26:55 51°19.123 3°3.828 8.9864 3.527963 31.65656 -2.871232
2006-12-19 14:27:55 51°18.996 3°3.534 9 3.536766 31.712335 -2.871232
2006-12-19 14:28:55 51°18.87 3°3.24 9.0045 3.538527 31.726508 -2.871232
2006-12-19 14:29:55 51°18.749 3°2.941 9.0047 3.534902 31.684533 -2.871232
2006-12-19 14:30:55 51°18.633 3°2.638 9.0052 3.528584 31.621647 -2.871232
2006-12-19 14:31:55 51°18.518 3°2.334 9.0104 3.524649 31.579971 -2.871232
2006-12-19 14:32:55 51°18.409 3°2.025 9.0136 3.521749 31.550283 -2.871232
2006-12-19 14:33:55 51°18.295 3°1.719 9.0285 3.534695 31.65647 -2.871232
2006-12-19 14:34:55 51°18.181 3°1.416 9.0246 3.531484 31.622025 -2.871232
2006-12-19 14:35:55 51°18.067 3°1.112 9.015 3.521645 31.540062 -2.871232
2006-12-19 14:36:55 51°17.951 3°0.809 9.0395 3.525477 31.576504 -2.871232
2006-12-19 14:37:55 51°17.834 3°0.503 9.0447 3.532934 31.6264 -2.871232
2006-12-19 14:38:55 51°17.718 3°0.195 9.0391 3.530655 31.607093 -2.871232
2006-12-19 14:39:55 51°17.606 2°59.88 9.0691 3.530759 31.601432 -2.871232
2006-12-19 14:40:55 51°17.501 2°59.557 9.0684 3.533969 31.617455 -2.871232
2006-12-19 14:41:55 51°17.4 2°59.232 9.0668 3.532726 31.603434 -2.871232
2006-12-19 14:42:55 51°17.301 2°58.907 9.0894 3.532933 31.602985 -2.871232
2006-12-19 14:43:55 51°17.203 2°58.579 9.0986 3.538112 31.634364 -2.871232
2006-12-19 14:44:55 51°17.113 2°58.245 9.1123 3.543705 31.682377 -2.871232
2006-12-19 14:45:55 51°17.027 2°57.908 9.1689 3.550229 31.721207 -2.871232
2006-12-19 14:46:55 51°16.947 2°57.57 9.174 3.560586 31.782924 -2.871232
2006-12-19 14:47:55 51°16.867 2°57.231 9.1782 3.556133 31.737925 -2.871232
2006-12-19 14:48:55 51°16.787 2°56.892 9.1865 3.5523 31.695756 -2.871232
2006-12-19 14:49:55 51°16.708 2°56.553 9.1898 3.551782 31.681438 -2.871232
2006-12-19 14:50:55 51°16.631 2°56.215 9.2083 3.547743 31.638917 -2.871232
2006-12-19 14:51:55 51°16.552 2°55.877 9.2119 3.549918 31.642958 -2.871232
2006-12-19 14:52:55 51°16.478 2°55.533 9.2047 3.549089 31.641419 -2.871232
2006-12-19 14:53:55 51°16.403 2°55.188 9.213 3.549503 31.646355 -2.871232
2006-12-19 14:54:55 51°16.335 2°54.864 9.2154 3.550953 31.649881 -2.871232
2006-12-19 14:55:55 51°16.283 2°54.586 9.218 3.54971 31.636743 -2.871232
2006-12-19 14:56:55 51°16.247 2°54.399 9.2158 3.548675 31.628987 -2.871232
2006-12-19 14:57:55 51°16.226 2°54.286 9.2208 3.550435 31.63809 -2.871232
2006-12-19 14:58:57 51°16.228 2°54.288 9.2582 3.554267 31.661026 -2.871232
2006-12-19 14:59:54 51°16.226 2°54.288 9.2661 3.562243 31.717428 -2.871232
2006-12-19 15:00:55 51°16.224 2°54.285 9.264 3.56276 31.720049 -2.871232
2006-12-19 15:01:55 51°16.221 2°54.281 9.2534 3.559757 31.697007 -2.871232
2006-12-19 15:02:55 51°16.216 2°54.276 9.2556 3.559757 31.697007 -2.871232
2006-12-19 15:03:55 51°16.211 2°54.27 9.2512 3.556339 31.673192 -2.871232
2006-12-19 15:04:55 51°16.205 2°54.262 9.2425 3.55696 31.672677 -2.871232
2006-12-19 15:05:55 51°16.197 2°54.247 9.2253 3.5523 31.641554 -2.871232
2006-12-19 15:06:55 51°16.207 2°54.082 9.2162 3.54826 31.621556 -2.871232
2006-12-19 15:07:55 51°16.359 2°53.935 9.2765 3.553335 31.656799 -2.871232
2006-12-19 15:08:55 51°16.51 2°53.717 9.3397 3.575604 31.809493 -2.871232
2006-12-19 15:09:55 51°16.664 2°53.467 9.3513 3.583786 31.8561 -2.871232
2006-12-19 15:10:55 51°16.82 2°53.215 9.382 3.586376 31.867471 -2.871232
2006-12-19 15:11:55 51°16.968 2°52.959 9.403 3.591658 31.897062 -2.871232
2006-12-19 15:12:55 51°17.13 2°52.708 9.4313 3.597562 31.933591 -2.871232
2006-12-19 15:13:55 51°17.298 2°52.475 9.6215 3.618797 32.075999 -2.871232
2006-12-19 15:14:55 51°17.469 2°52.244 9.7725 3.669453 32.385336 -2.871232
2006-12-19 15:15:55 51°17.645 2°52.021 9.9642 3.705299 32.579296 -2.871232
2006-12-19 15:16:55 51°17.82 2°51.802 9.9785 3.72457 32.66663 -2.871232
2006-12-19 15:17:54 51°17.993 2°51.585 9.9959 3.726849 32.666164 -2.871232
2006-12-19 15:18:55 51°18.174 2°51.372 9.9962 3.731512 32.704918 -2.871232
2006-12-19 15:19:55 51°18.306 2°51.218 9.9816 3.733273 32.726311 -2.871232
2006-12-19 15:20:55 51°18.394 2°51.114 9.9679 3.73317 32.737939 -2.871232
2006-12-19 15:21:55 51°18.464 2°51.043 9.96 3.733481 32.751091 -2.871232
2006-12-19 15:22:55 51°18.504 2°51.009 9.9588 3.733792 32.763408 -2.871232
2006-12-19 15:23:55 51°18.504 2°51 9.9587 3.734413 32.767792 -2.871232
2006-12-19 15:24:55 51°18.503 2°50.99 9.9576 3.734517 32.76796 -2.871232
2006-12-19 15:25:55 51°18.504 2°50.979 9.9567 3.734206 32.768301 -2.871232
2006-12-19 15:26:55 51°18.504 2°50.968 9.9564 3.734621 32.769816 -2.871232
2006-12-19 15:27:55 51°18.506 2°50.936 9.9694 3.734724 32.769984 -2.871232
2006-12-19 15:28:55 51°18.425 2°50.864 9.9673 3.734724 32.772516 -2.871232
2006-12-19 15:29:55 51°18.264 2°51.049 9.974 3.733377 32.755141 -2.871232
2006-12-19 15:30:55 51°18.091 2°51.268 9.9941 3.733066 32.727659 -2.871232
2006-12-19 15:31:55 51°17.915 2°51.479 9.998 3.732755 32.722941 -2.871232
2006-12-19 15:32:55 51°17.743 2°51.696 9.997 3.730683 32.700198 -2.871232
2006-12-19 15:33:55 51°17.558 2°51.892 9.9833 3.727574 32.678286 -2.871232
2006-12-19 15:34:55 51°17.362 2°52.066 9.903 3.725917 32.673045 -2.871232
2006-12-19 15:35:55 51°17.163 2°52.232 9.7096 3.697011 32.525953 -2.871232
2006-12-19 15:36:55 51°16.964 2°52.394 9.497 3.643761 32.20854 -2.871232
2006-12-19 15:37:55 51°16.766 2°52.56 9.463 3.612271 32.019233 -2.871232
2006-12-19 15:38:55 51°16.566 2°52.726 9.4382 3.603777 31.958102 -2.871232
2006-12-19 15:39:55 51°16.364 2°52.89 9.4109 3.598183 31.919669 -2.871232
2006-12-19 15:40:55 51°16.161 2°53.05 9.3849 3.591451 31.879151 -2.871232
2006-12-19 15:41:55 51°15.964 2°53.218 9.3276 3.582129 31.824707 -2.871232
2006-12-19 15:42:55 51°15.766 2°53.383 9.2618 3.562449 31.694481 -2.871232
2006-12-19 15:43:55 51°15.566 2°53.547 9.2487 3.547224 31.583036 -2.871232
2006-12-19 15:44:55 51°15.37 2°53.721 9.2431 3.542667 31.550419 -2.871232
2006-12-19 15:45:55 51°15.182 2°53.911 9.2801 3.545981 31.556637 -2.871232
2006-12-19 15:46:55 51°15.001 2°54.117 9.3672 3.556545 31.636968 -2.871232
2006-12-19 15:47:55 51°14.819 2°54.328 9.2957 3.561827 31.656742 -2.871232
2006-12-19 15:48:55 51°14.651 2°54.56 9.2743 3.53842 31.462067 -2.871232
2006-12-19 15:49:55 51°14.49 2°54.803 9.1728 3.513771 31.27959 -2.871232
2006-12-19 15:50:55 51°14.348 2°55.069 9.0825 3.501966 31.226215 -2.871232
2006-12-19 15:51:55 51°14.23 2°55.31 8.8725 3.338472 29.787162 -2.871232
2006-12-19 15:52:55 51°14.1 2°55.432 8.8515 3.252141 29.008429 -2.871232
2006-12-19 15:53:55 51°13.982 2°55.512 8.7719 3.218399 28.697687 -2.871232
2006-12-19 15:54:55 51°13.88 2°55.585 8.763 3.056869 27.181537 -2.871232
2006-12-19 15:55:55 51°13.79 2°55.665 8.7523 3.112845 27.70084 -2.871232
2006-12-19 15:56:55 51°13.715 2°55.771 8.5778 2.869542 25.420609 -2.871232
2006-12-19 15:57:55 51°13.66 2°55.881 8.5849 2.736359 24.172535 -2.871232
2006-12-19 15:58:55 51°13.623 2°55.987 8.5701 2.634223 23.207239 -2.871232
2006-12-19 15:59:55 51°13.608 2°56.063 8.5243 2.622233 23.093056 -2.871232
2006-12-19 16:00:55 51°13.604 2°56.08 8.5813 2.653553 23.389438 -2.871232
2006-12-19 16:01:58 51°13.598 2°56.091 8.6119 2.74494 24.239076 -2.871232